sensor_id;sensor_type;location;lat;lon;timestamp;pressure;altitude;pressure_sealevel;temperature;humidity
72975;BME280;61166;54.228;37.632;2023-04-29T00:02:03;98929.81;;;5.45;nan
72975;BME280;61166;54.228;37.632;2023-04-29T00:04:30;98929.81;;;5.45;nan
72975;BME280;61166;54.228;37.632;2023-04-29T00:16:42;98925.16;;;5.41;nan
72975;BME280;61166;54.228;37.632;2023-04-29T00:19:09;98923.53;;;5.40;nan
72975;BME280;61166;54.228;37.632;2023-04-29T00:31:21;98928.69;;;5.32;nan
72975;BME280;61166;54.228;37.632;2023-04-29T00:33:47;98931.84;;;5.32;nan
72975;BME280;61166;54.228;37.632;2023-04-29T00:36:14;98926.63;;;5.28;nan
72975;BME280;61166;54.228;37.632;2023-04-29T00:38:40;98932.56;;;5.22;nan
72975;BME280;61166;54.228;37.632;2023-04-29T01:23:32;98939.28;;;4.60;nan
72975;BME280;61166;54.228;37.632;2023-04-29T01:25:59;98939.28;;;4.51;nan
72975;BME280;61166;54.228;37.632;2023-04-29T01:36:30;98938.13;;;4.59;nan
72975;BME280;61166;54.228;37.632;2023-04-29T01:41:44;98931.56;;;4.56;nan
72975;BME280;61166;54.228;37.632;2023-04-29T01:44:21;98946.84;;;4.43;nan
72975;BME280;61166;54.228;37.632;2023-04-29T01:46:51;98946.84;;;4.46;nan
72975;BME280;61166;54.228;37.632;2023-04-29T01:49:27;98954.28;;;4.46;nan
72975;BME280;61166;54.228;37.632;2023-04-29T01:51:54;98965.22;;;4.44;nan
72975;BME280;61166;54.228;37.632;2023-04-29T01:54:21;98959.84;;;4.44;nan
72975;BME280;61166;54.228;37.632;2023-04-29T01:56:47;98963.63;;;4.46;nan
72975;BME280;61166;54.228;37.632;2023-04-29T01:59:14;98963.63;;;4.43;nan
72975;BME280;61166;54.228;37.632;2023-04-29T02:01:40;98963.63;;;4.43;nan
72975;BME280;61166;54.228;37.632;2023-04-29T02:04:07;98963.63;;;4.43;nan
72975;BME280;61166;54.228;37.632;2023-04-29T02:06:34;98970.88;;;4.43;nan
72975;BME280;61166;54.228;37.632;2023-04-29T02:09:00;98970.88;;;4.33;nan
72975;BME280;61166;54.228;37.632;2023-04-29T02:11:27;98970.88;;;4.33;nan
72975;BME280;61166;54.228;37.632;2023-04-29T02:13:53;98970.88;;;4.33;nan
72975;BME280;61166;54.228;37.632;2023-04-29T02:16:20;98970.88;;;4.33;nan
72975;BME280;61166;54.228;37.632;2023-04-29T02:18:46;98970.88;;;4.33;nan
72975;BME280;61166;54.228;37.632;2023-04-29T02:21:13;98970.88;;;4.33;nan
72975;BME280;61166;54.228;37.632;2023-04-29T02:23:39;98970.88;;;4.33;nan
72975;BME280;61166;54.228;37.632;2023-04-29T02:26:06;98970.88;;;4.33;nan
72975;BME280;61166;54.228;37.632;2023-04-29T02:28:32;98970.88;;;4.33;nan
72975;BME280;61166;54.228;37.632;2023-04-29T02:30:59;98970.88;;;4.33;nan
72975;BME280;61166;54.228;37.632;2023-04-29T02:33:26;98970.88;;;4.33;nan
72975;BME280;61166;54.228;37.632;2023-04-29T02:35:52;98970.88;;;4.33;nan
72975;BME280;61166;54.228;37.632;2023-04-29T02:38:19;98970.88;;;4.33;nan
72975;BME280;61166;54.228;37.632;2023-04-29T02:40:46;98988.31;;;4.33;nan
72975;BME280;61166;54.228;37.632;2023-04-29T02:43:12;98988.31;;;3.87;nan
72975;BME280;61166;54.228;37.632;2023-04-29T02:45:39;98988.31;;;3.87;nan
72975;BME280;61166;54.228;37.632;2023-04-29T02:48:06;98988.31;;;3.87;nan
72975;BME280;61166;54.228;37.632;2023-04-29T02:50:33;98988.31;;;3.87;nan
72975;BME280;61166;54.228;37.632;2023-04-29T02:52:59;98988.31;;;3.87;nan
72975;BME280;61166;54.228;37.632;2023-04-29T02:55:26;98988.31;;;3.87;nan
72975;BME280;61166;54.228;37.632;2023-04-29T02:57:52;98988.31;;;3.87;nan
72975;BME280;61166;54.228;37.632;2023-04-29T03:00:19;98988.31;;;3.87;nan
72975;BME280;61166;54.228;37.632;2023-04-29T03:02:46;98988.31;;;3.87;nan
72975;BME280;61166;54.228;37.632;2023-04-29T03:05:13;98988.31;;;3.87;nan
72975;BME280;61166;54.228;37.632;2023-04-29T03:07:39;98988.31;;;3.87;nan
72975;BME280;61166;54.228;37.632;2023-04-29T03:10:07;98988.31;;;3.87;nan
72975;BME280;61166;54.228;37.632;2023-04-29T03:12:33;98988.31;;;3.87;nan
72975;BME280;61166;54.228;37.632;2023-04-29T03:15:00;98988.31;;;3.87;nan
72975;BME280;61166;54.228;37.632;2023-04-29T03:17:27;98988.31;;;3.87;nan
72975;BME280;61166;54.228;37.632;2023-04-29T03:19:53;98988.31;;;3.87;nan
72975;BME280;61166;54.228;37.632;2023-04-29T03:22:20;98988.31;;;3.87;nan
72975;BME280;61166;54.228;37.632;2023-04-29T03:24:47;98988.31;;;3.87;nan
72975;BME280;61166;54.228;37.632;2023-04-29T03:27:13;98988.31;;;3.87;nan
72975;BME280;61166;54.228;37.632;2023-04-29T03:29:40;98988.31;;;3.87;nan
72975;BME280;61166;54.228;37.632;2023-04-29T03:32:07;98988.31;;;3.87;nan
72975;BME280;61166;54.228;37.632;2023-04-29T03:34:33;98988.31;;;3.87;nan
72975;BME280;61166;54.228;37.632;2023-04-29T03:37:00;98988.31;;;3.87;nan
72975;BME280;61166;54.228;37.632;2023-04-29T03:39:27;98988.31;;;3.87;nan
72975;BME280;61166;54.228;37.632;2023-04-29T03:41:53;98988.31;;;3.87;nan
72975;BME280;61166;54.228;37.632;2023-04-29T03:44:20;98988.31;;;3.87;nan
72975;BME280;61166;54.228;37.632;2023-04-29T03:46:46;98988.31;;;3.87;nan
72975;BME280;61166;54.228;37.632;2023-04-29T03:49:13;98988.31;;;3.87;nan
72975;BME280;61166;54.228;37.632;2023-04-29T03:51:40;98988.31;;;3.87;nan
72975;BME280;61166;54.228;37.632;2023-04-29T03:54:06;98988.31;;;3.87;nan
72975;BME280;61166;54.228;37.632;2023-04-29T03:56:33;98988.31;;;3.87;nan
72975;BME280;61166;54.228;37.632;2023-04-29T03:59:00;98988.31;;;3.87;nan
72975;BME280;61166;54.228;37.632;2023-04-29T04:01:26;98988.31;;;3.87;nan
72975;BME280;61166;54.228;37.632;2023-04-29T04:03:53;98988.31;;;3.87;nan
72975;BME280;61166;54.228;37.632;2023-04-29T04:06:20;98988.31;;;3.87;nan
72975;BME280;61166;54.228;37.632;2023-04-29T04:08:46;98988.31;;;3.87;nan
72975;BME280;61166;54.228;37.632;2023-04-29T04:11:13;98988.31;;;3.87;nan
72975;BME280;61166;54.228;37.632;2023-04-29T04:13:43;98988.31;;;3.87;nan
72975;BME280;61166;54.228;37.632;2023-04-29T04:16:10;98988.31;;;3.87;nan
72975;BME280;61166;54.228;37.632;2023-04-29T04:18:37;98988.31;;;3.87;nan
72975;BME280;61166;54.228;37.632;2023-04-29T04:21:05;98988.31;;;3.87;nan
72975;BME280;61166;54.228;37.632;2023-04-29T04:23:31;98988.31;;;3.87;nan
72975;BME280;61166;54.228;37.632;2023-04-29T04:25:58;98988.31;;;3.87;nan
72975;BME280;61166;54.228;37.632;2023-04-29T04:28:25;99143.38;;;3.49;nan
72975;BME280;61166;54.228;37.632;2023-04-29T04:30:51;99143.38;;;3.49;nan
72975;BME280;61166;54.228;37.632;2023-04-29T04:33:18;99143.38;;;3.49;nan
72975;BME280;61166;54.228;37.632;2023-04-29T04:35:45;99143.38;;;3.49;nan
72975;BME280;61166;54.228;37.632;2023-04-29T04:38:11;99143.38;;;3.49;nan
72975;BME280;61166;54.228;37.632;2023-04-29T04:40:41;99143.38;;;3.49;nan
72975;BME280;61166;54.228;37.632;2023-04-29T04:43:08;99143.38;;;3.49;nan
72975;BME280;61166;54.228;37.632;2023-04-29T04:45:35;99143.38;;;3.49;nan
72975;BME280;61166;54.228;37.632;2023-04-29T04:48:02;99143.38;;;3.49;nan
72975;BME280;61166;54.228;37.632;2023-04-29T04:50:29;99152.28;;;3.62;nan
72975;BME280;61166;54.228;37.632;2023-04-29T04:52:56;99152.28;;;3.62;nan
72975;BME280;61166;54.228;37.632;2023-04-29T04:55:23;99155.34;;;3.62;nan
72975;BME280;61166;54.228;37.632;2023-04-29T04:57:49;99155.34;;;3.74;nan
72975;BME280;61166;54.228;37.632;2023-04-29T05:00:16;99155.34;;;3.74;nan
72975;BME280;61166;54.228;37.632;2023-04-29T05:02:43;99169.38;;;3.74;nan
72975;BME280;61166;54.228;37.632;2023-04-29T05:05:10;99169.38;;;4.04;nan
72975;BME280;61166;54.228;37.632;2023-04-29T05:07:36;99169.38;;;4.04;nan
72975;BME280;61166;54.228;37.632;2023-04-29T05:10:03;99169.38;;;4.04;nan
72975;BME280;61166;54.228;37.632;2023-04-29T05:12:30;99169.38;;;4.04;nan
72975;BME280;61166;54.228;37.632;2023-04-29T05:14:57;99173.88;;;4.04;nan
72975;BME280;61166;54.228;37.632;2023-04-29T05:17:24;99176.44;;;4.41;nan
72975;BME280;61166;54.228;37.632;2023-04-29T05:19:51;99176.44;;;4.49;nan
72975;BME280;61166;54.228;37.632;2023-04-29T05:22:18;99171.38;;;4.49;nan
72975;BME280;61166;54.228;37.632;2023-04-29T05:24:44;99165.41;;;4.56;nan
72975;BME280;61166;54.228;37.632;2023-04-29T05:27:11;99165.41;;;4.47;nan
72975;BME280;61166;54.228;37.632;2023-04-29T05:29:38;99165.41;;;4.47;nan
72975;BME280;61166;54.228;37.632;2023-04-29T05:32:04;99176.78;;;4.47;nan
72975;BME280;61166;54.228;37.632;2023-04-29T05:34:31;99176.78;;;4.92;nan
72975;BME280;61166;54.228;37.632;2023-04-29T05:36:57;99176.78;;;4.92;nan
72975;BME280;61166;54.228;37.632;2023-04-29T05:39:24;99180.94;;;4.92;nan
72975;BME280;61166;54.228;37.632;2023-04-29T05:41:51;99180.94;;;5.53;nan
72975;BME280;61166;54.228;37.632;2023-04-29T05:44:17;99180.94;;;5.53;nan
72975;BME280;61166;54.228;37.632;2023-04-29T05:46:44;99180.94;;;5.53;nan
72975;BME280;61166;54.228;37.632;2023-04-29T05:49:11;99180.94;;;5.53;nan
72975;BME280;61166;54.228;37.632;2023-04-29T05:51:37;99180.94;;;5.53;nan
72975;BME280;61166;54.228;37.632;2023-04-29T05:54:04;99180.94;;;5.53;nan
72975;BME280;61166;54.228;37.632;2023-04-29T05:56:31;99180.94;;;5.53;nan
72975;BME280;61166;54.228;37.632;2023-04-29T05:58:57;99180.94;;;5.53;nan
72975;BME280;61166;54.228;37.632;2023-04-29T06:01:24;99180.94;;;5.53;nan
72975;BME280;61166;54.228;37.632;2023-04-29T06:03:51;99180.94;;;5.53;nan
72975;BME280;61166;54.228;37.632;2023-04-29T06:06:18;99180.94;;;5.53;nan
72975;BME280;61166;54.228;37.632;2023-04-29T06:08:45;99180.94;;;5.53;nan
72975;BME280;61166;54.228;37.632;2023-04-29T06:11:12;99180.94;;;5.53;nan
72975;BME280;61166;54.228;37.632;2023-04-29T06:13:38;99180.94;;;5.53;nan
72975;BME280;61166;54.228;37.632;2023-04-29T06:16:05;99180.94;;;5.53;nan
72975;BME280;61166;54.228;37.632;2023-04-29T06:18:32;99180.94;;;5.53;nan
72975;BME280;61166;54.228;37.632;2023-04-29T06:20:58;99180.94;;;5.53;nan
72975;BME280;61166;54.228;37.632;2023-04-29T06:23:25;99180.94;;;5.53;nan
72975;BME280;61166;54.228;37.632;2023-04-29T06:25:52;99180.94;;;5.53;nan
72975;BME280;61166;54.228;37.632;2023-04-29T06:28:20;99180.94;;;5.53;nan
72975;BME280;61166;54.228;37.632;2023-04-29T06:30:46;99180.94;;;5.53;nan
72975;BME280;61166;54.228;37.632;2023-04-29T06:38:06;99246.66;;;8.27;nan
72975;BME280;61166;54.228;37.632;2023-04-29T21:14:22;99622.19;;;2.41;nan
72975;BME280;61166;54.228;37.632;2023-04-29T21:16:49;99622.19;;;2.41;nan
72975;BME280;61166;54.228;37.632;2023-04-29T21:19:15;99622.19;;;2.41;nan
72975;BME280;61166;54.228;37.632;2023-04-29T21:21:42;99622.19;;;2.41;nan
72975;BME280;61166;54.228;37.632;2023-04-29T21:24:09;99622.19;;;2.41;nan
72975;BME280;61166;54.228;37.632;2023-04-29T21:41:23;99601.75;;;2.20;nan
72975;BME280;61166;54.228;37.632;2023-04-29T21:43:49;99593.75;;;2.13;nan
72975;BME280;61166;54.228;37.632;2023-04-29T21:46:16;99602.19;;;2.15;nan
72975;BME280;61166;54.228;37.632;2023-04-29T21:48:43;99594.69;;;2.12;nan
72975;BME280;61166;54.228;37.632;2023-04-29T21:51:10;99593.50;;;2.07;nan
72975;BME280;61166;54.228;37.632;2023-04-29T21:53:36;99593.50;;;2.07;nan
72975;BME280;61166;54.228;37.632;2023-04-29T21:56:04;99593.56;;;1.97;nan
72975;BME280;61166;54.228;37.632;2023-04-29T22:05:50;99585.47;;;1.82;nan
72975;BME280;61166;54.228;37.632;2023-04-29T22:08:17;99594.00;;;1.92;nan
72975;BME280;61166;54.228;37.632;2023-04-29T22:10:44;99581.63;;;1.86;nan
72975;BME280;61166;54.228;37.632;2023-04-29T22:13:11;99586.66;;;1.88;nan
72975;BME280;61166;54.228;37.632;2023-04-29T22:15:37;99586.84;;;2.04;nan
72975;BME280;61166;54.228;37.632;2023-04-29T22:18:04;99590.69;;;2.18;nan
72975;BME280;61166;54.228;37.632;2023-04-29T22:20:31;99591.28;;;2.12;nan
72975;BME280;61166;54.228;37.632;2023-04-29T22:22:57;99584.75;;;2.08;nan
72975;BME280;61166;54.228;37.632;2023-04-29T22:25:24;99591.94;;;1.96;nan
72975;BME280;61166;54.228;37.632;2023-04-29T22:27:50;99600.59;;;1.87;nan
72975;BME280;61166;54.228;37.632;2023-04-29T22:30:17;99587.03;;;1.93;nan
72975;BME280;61166;54.228;37.632;2023-04-29T22:32:44;99589.63;;;1.93;nan
72975;BME280;61166;54.228;37.632;2023-04-29T22:35:10;99587.41;;;1.98;nan
72975;BME280;61166;54.228;37.632;2023-04-29T22:37:37;99586.53;;;2.07;nan
72975;BME280;61166;54.228;37.632;2023-04-29T22:40:04;99585.34;;;2.02;nan
72975;BME280;61166;54.228;37.632;2023-04-29T22:42:30;99579.53;;;1.90;nan
72975;BME280;61166;54.228;37.632;2023-04-29T22:44:57;99576.56;;;1.67;nan
72975;BME280;61166;54.228;37.632;2023-04-29T22:47:23;99574.16;;;1.56;nan
72975;BME280;61166;54.228;37.632;2023-04-29T22:49:50;99585.13;;;1.40;nan
72975;BME280;61166;54.228;37.632;2023-04-29T22:52:17;99580.13;;;1.29;nan
72975;BME280;61166;54.228;37.632;2023-04-29T22:54:43;99580.31;;;1.18;nan
72975;BME280;61166;54.228;37.632;2023-04-29T22:57:10;99582.22;;;1.16;nan
72975;BME280;61166;54.228;37.632;2023-04-29T22:59:36;99584.66;;;1.17;nan
72975;BME280;61166;54.228;37.632;2023-04-29T23:04:29;99596.28;;;1.50;nan
72975;BME280;61166;54.228;37.632;2023-04-29T23:06:56;99603.88;;;1.61;nan
72975;BME280;61166;54.228;37.632;2023-04-29T23:09:22;99606.03;;;1.66;nan
72975;BME280;61166;54.228;37.632;2023-04-29T23:48:26;99621.28;;;0.85;nan
